PWSweather.com
Personal Weather Stations
Station Observations
KOHAVON11
Long Road Station, Avon, OH 44011

Long Road StationAvon, OH 44011

Lat: 41.437, Lon: -82.0477

Elevation: 686

Station Type: Davis Vantage Pro2

http://www.avon-weather.com

High Low Average
Temperature 27.2°F-2.7°C 23.7°F-4.6°C 25.5°F-3.6°C
Dew Point 19.0°F-7.2°C 14.9°F-9.5°C 17.3°F-8.2°C
Winds 9.0 mph 14.5 kmh Calm Calm 3.0 mph SE4.8 kmh SE
Wind Gusts 13.0 mph20.9 kmh 1.0 mph1.6 kmh 8.0 mph12.9 kmh
Humidity 77% 68% 71%
Pressure 30.15 in1021.0 mb 29.98 in1015.2 mb -
Precipitation 0.00 in0.0 mm - -
Hour Temp Dew Point Humidity Winds Wind Gusts Pressure Precip Precip Rate Daily Precip Total
12:00 AM 24.5°F-4.2°C 16.4°F-8.7°C 71% 2.0 mph WNW3.2 kmh WNW 8.0 mph12.9 kmh 29.98 in1015.2 mb 0.00 in0.0 mm 0.00 in0.0 mm 0.00 in0.0 mm
12:05 AM 24.4°F-4.2°C 16.3°F-8.7°C 71% 3.0 mph WNW4.8 kmh WNW 7.0 mph11.3 kmh 29.99 in1015.6 mb 0.00 in0.0 mm 0.00 in0.0 mm 0.00 in0.0 mm
12:10 AM 24.3°F-4.3°C 15.9°F-8.9°C 70% 3.0 mph W4.8 kmh W 7.0 mph11.3 kmh 29.99 in1015.6 mb 0.00 in0.0 mm 0.00 in0.0 mm 0.00 in0.0 mm
12:15 AM 24.2°F-4.3°C 16.1°F-8.8°C 71% 3.0 mph NW4.8 kmh NW 7.0 mph11.3 kmh 29.99 in1015.6 mb 0.00 in0.0 mm 0.00 in0.0 mm 0.00 in0.0 mm
12:20 AM 24.1°F-4.4°C 15.7°F-9.1°C 70% 2.0 mph WNW3.2 kmh WNW 7.0 mph11.3 kmh 29.99 in1015.6 mb 0.00 in0.0 mm 0.00 in0.0 mm 0.00 in0.0 mm
12:25 AM 24.1°F-4.4°C 15.7°F-9.1°C 70% 3.0 mph WNW4.8 kmh WNW 6.0 mph9.7 kmh 29.99 in1015.6 mb 0.00 in0.0 mm 0.00 in0.0 mm 0.00 in0.0 mm
12:30 AM 24.1°F-4.4°C 15.7°F-9.1°C 70% 1.0 mph WNW1.6 kmh WNW 6.0 mph9.7 kmh 29.99 in1015.6 mb 0.00 in0.0 mm 0.00 in0.0 mm 0.00 in0.0 mm
12:35 AM 24.1°F-4.4°C 15.7°F-9.1°C 70% 4.0 mph NW6.4 kmh NW 6.0 mph9.7 kmh 29.99 in1015.6 mb 0.00 in0.0 mm 0.00 in0.0 mm 0.00 in0.0 mm
12:40 AM 24.2°F-4.3°C 15.8°F-9.0°C 70% 1.0 mph NW1.6 kmh NW 7.0 mph11.3 kmh 30.00 in1015.9 mb 0.00 in0.0 mm 0.00 in0.0 mm 0.00 in0.0 mm
12:45 AM 24.2°F-4.3°C 15.8°F-9.0°C 70% 6.0 mph WNW9.7 kmh WNW 9.0 mph14.5 kmh 30.00 in1015.9 mb 0.00 in0.0 mm 0.00 in0.0 mm 0.00 in0.0 mm
12:50 AM 24.3°F-4.3°C 15.9°F-8.9°C 70% 2.0 mph WNW3.2 kmh WNW 10.0 mph16.1 kmh 30.00 in1015.9 mb 0.00 in0.0 mm 0.00 in0.0 mm 0.00 in0.0 mm
12:55 AM 24.4°F-4.2°C 16.0°F-8.9°C 70% 5.0 mph NW8.0 kmh NW 12.0 mph19.3 kmh 30.00 in1015.9 mb 0.00 in0.0 mm 0.00 in0.0 mm 0.00 in0.0 mm
01:00 AM 24.5°F-4.2°C 16.1°F-8.8°C 70% 4.0 mph W6.4 kmh W 12.0 mph19.3 kmh 30.00 in1015.9 mb 0.00 in0.0 mm 0.00 in0.0 mm 0.00 in0.0 mm
01:05 AM 24.6°F-4.1°C 16.1°F-8.8°C 70% 4.0 mph WNW6.4 kmh WNW 13.0 mph20.9 kmh 30.01 in1016.3 mb 0.00 in0.0 mm 0.00 in0.0 mm 0.00 in0.0 mm
01:10 AM 24.6°F-4.1°C 15.8°F-9.0°C 69% 3.0 mph WNW4.8 kmh WNW 13.0 mph20.9 kmh 30.01 in1016.3 mb 0.00 in0.0 mm 0.00 in0.0 mm 0.00 in0.0 mm
01:15 AM 24.7°F-4.1°C 15.9°F-8.9°C 69% 2.0 mph WNW3.2 kmh WNW 13.0 mph20.9 kmh 30.01 in1016.3 mb 0.00 in0.0 mm 0.00 in0.0 mm 0.00 in0.0 mm
01:20 AM 24.7°F-4.1°C 15.9°F-8.9°C 69% 3.0 mph NW4.8 kmh NW 13.0 mph20.9 kmh 30.01 in1016.3 mb 0.00 in0.0 mm 0.00 in0.0 mm 0.00 in0.0 mm
01:25 AM 24.8°F-4.0°C 16.0°F-8.9°C 69% 2.0 mph WNW3.2 kmh WNW 10.0 mph16.1 kmh 30.01 in1016.3 mb 0.00 in0.0 mm 0.00 in0.0 mm 0.00 in0.0 mm
01:30 AM 24.8°F-4.0°C 16.0°F-8.9°C 69% 5.0 mph WNW8.0 kmh WNW 11.0 mph17.7 kmh 30.01 in1016.3 mb 0.00 in0.0 mm 0.00 in0.0 mm 0.00 in0.0 mm
01:35 AM 24.8°F-4.0°C 16.0°F-8.9°C 69% 6.0 mph NW9.7 kmh NW 12.0 mph19.3 kmh 30.01 in1016.3 mb 0.00 in0.0 mm 0.00 in0.0 mm 0.00 in0.0 mm
01:40 AM 24.8°F-4.0°C 16.0°F-8.9°C 69% 3.0 mph WNW4.8 kmh WNW 12.0 mph19.3 kmh 30.01 in1016.3 mb 0.00 in0.0 mm 0.00 in0.0 mm 0.00 in0.0 mm
01:45 AM 24.8°F-4.0°C 16.0°F-8.9°C 69% 4.0 mph NW6.4 kmh NW 12.0 mph19.3 kmh 30.01 in1016.3 mb 0.00 in0.0 mm 0.00 in0.0 mm 0.00 in0.0 mm
01:50 AM 24.9°F-3.9°C 16.1°F-8.8°C 69% 9.0 mph WNW14.5 kmh WNW 12.0 mph19.3 kmh 30.01 in1016.3 mb 0.00 in0.0 mm 0.00 in0.0 mm 0.00 in0.0 mm
01:55 AM 24.8°F-4.0°C 16.0°F-8.9°C 69% 5.0 mph WNW8.0 kmh WNW 12.0 mph19.3 kmh 30.01 in1016.3 mb 0.00 in0.0 mm 0.00 in0.0 mm 0.00 in0.0 mm
02:00 AM 24.8°F-4.0°C 16.0°F-8.9°C 69% 7.0 mph NNW11.3 kmh NNW 12.0 mph19.3 kmh 30.01 in1016.3 mb 0.00 in0.0 mm 0.00 in0.0 mm 0.00 in0.0 mm
02:05 AM 24.7°F-4.1°C 15.9°F-8.9°C 69% 2.0 mph N3.2 kmh N 12.0 mph19.3 kmh 30.01 in1016.3 mb 0.00 in0.0 mm 0.00 in0.0 mm 0.00 in0.0 mm
02:10 AM 24.7°F-4.1°C 15.9°F-8.9°C 69% 3.0 mph NW4.8 kmh NW 12.0 mph19.3 kmh 30.01 in1016.3 mb 0.00 in0.0 mm 0.00 in0.0 mm 0.00 in0.0 mm
02:15 AM 24.7°F-4.1°C 15.9°F-8.9°C 69% 1.0 mph NW1.6 kmh NW 10.0 mph16.1 kmh 30.01 in1016.3 mb 0.00 in0.0 mm 0.00 in0.0 mm 0.00 in0.0 mm
02:20 AM 24.7°F-4.1°C 15.9°F-8.9°C 69% 6.0 mph NW9.7 kmh NW 10.0 mph16.1 kmh 30.01 in1016.3 mb 0.00 in0.0 mm 0.00 in0.0 mm 0.00 in0.0 mm
02:25 AM 24.6°F-4.1°C 15.8°F-9.0°C 69% 9.0 mph WNW14.5 kmh WNW 12.0 mph19.3 kmh 30.01 in1016.3 mb 0.00 in0.0 mm 0.00 in0.0 mm 0.00 in0.0 mm
02:30 AM 24.7°F-4.1°C 15.9°F-8.9°C 69% 7.0 mph NW11.3 kmh NW 12.0 mph19.3 kmh 30.01 in1016.3 mb 0.00 in0.0 mm 0.00 in0.0 mm 0.00 in0.0 mm
02:35 AM 24.6°F-4.1°C 15.8°F-9.0°C 69% 8.0 mph W12.9 kmh W 12.0 mph19.3 kmh 30.01 in1016.3 mb 0.00 in0.0 mm 0.00 in0.0 mm 0.00 in0.0 mm
02:40 AM 24.6°F-4.1°C 15.8°F-9.0°C 69% 5.0 mph NW8.0 kmh NW 12.0 mph19.3 kmh 30.01 in1016.3 mb 0.00 in0.0 mm 0.00 in0.0 mm 0.00 in0.0 mm
02:45 AM 24.6°F-4.1°C 15.8°F-9.0°C 69% 5.0 mph NW8.0 kmh NW 10.0 mph16.1 kmh 30.01 in1016.3 mb 0.00 in0.0 mm 0.00 in0.0 mm 0.00 in0.0 mm
02:50 AM 24.6°F-4.1°C 15.8°F-9.0°C 69% 4.0 mph NW6.4 kmh NW 10.0 mph16.1 kmh 30.01 in1016.3 mb 0.00 in0.0 mm 0.00 in0.0 mm 0.00 in0.0 mm
02:55 AM 24.5°F-4.2°C 15.7°F-9.1°C 69% 4.0 mph NW6.4 kmh NW 9.0 mph14.5 kmh 30.01 in1016.3 mb 0.00 in0.0 mm 0.00 in0.0 mm 0.00 in0.0 mm
03:00 AM 24.5°F-4.2°C 15.7°F-9.1°C 69% 5.0 mph N8.0 kmh N 9.0 mph14.5 kmh 30.01 in1016.3 mb 0.00 in0.0 mm 0.00 in0.0 mm 0.00 in0.0 mm
03:05 AM 24.4°F-4.2°C 15.6°F-9.1°C 69% 4.0 mph NW6.4 kmh NW 8.0 mph12.9 kmh 30.01 in1016.3 mb 0.00 in0.0 mm 0.00 in0.0 mm 0.00 in0.0 mm
03:10 AM 24.4°F-4.2°C 15.6°F-9.1°C 69% 3.0 mph NW4.8 kmh NW 8.0 mph12.9 kmh 30.01 in1016.3 mb 0.00 in0.0 mm 0.00 in0.0 mm 0.00 in0.0 mm
03:15 AM 24.4°F-4.2°C 15.6°F-9.1°C 69% 6.0 mph NW9.7 kmh NW 7.0 mph11.3 kmh 30.01 in1016.3 mb 0.00 in0.0 mm 0.00 in0.0 mm 0.00 in0.0 mm
03:20 AM 24.4°F-4.2°C 15.6°F-9.1°C 69% 3.0 mph NNW4.8 kmh NNW 7.0 mph11.3 kmh 30.01 in1016.3 mb 0.00 in0.0 mm 0.00 in0.0 mm 0.00 in0.0 mm
03:25 AM 24.4°F-4.2°C 15.6°F-9.1°C 69% 4.0 mph WNW6.4 kmh WNW 7.0 mph11.3 kmh 30.01 in1016.3 mb 0.00 in0.0 mm 0.00 in0.0 mm 0.00 in0.0 mm
03:30 AM 24.4°F-4.2°C 15.6°F-9.1°C 69% 6.0 mph N9.7 kmh N 8.0 mph12.9 kmh 30.01 in1016.3 mb 0.00 in0.0 mm 0.00 in0.0 mm 0.00 in0.0 mm
03:35 AM 24.3°F-4.3°C 15.5°F-9.2°C 69% 1.0 mph NW1.6 kmh NW 8.0 mph12.9 kmh 30.01 in1016.3 mb 0.00 in0.0 mm 0.00 in0.0 mm 0.00 in0.0 mm
03:40 AM 24.3°F-4.3°C 15.5°F-9.2°C 69% 5.0 mph NW8.0 kmh NW 9.0 mph14.5 kmh 30.01 in1016.3 mb 0.00 in0.0 mm 0.00 in0.0 mm 0.00 in0.0 mm
03:45 AM 24.3°F-4.3°C 15.5°F-9.2°C 69% 3.0 mph NW4.8 kmh NW 11.0 mph17.7 kmh 30.01 in1016.3 mb 0.00 in0.0 mm 0.00 in0.0 mm 0.00 in0.0 mm
03:50 AM 24.3°F-4.3°C 15.5°F-9.2°C 69% 7.0 mph WNW11.3 kmh WNW 11.0 mph17.7 kmh 30.01 in1016.3 mb 0.00 in0.0 mm 0.00 in0.0 mm 0.00 in0.0 mm
03:55 AM 24.3°F-4.3°C 15.5°F-9.2°C 69% 5.0 mph NW8.0 kmh NW 11.0 mph17.7 kmh 30.01 in1016.3 mb 0.00 in0.0 mm 0.00 in0.0 mm 0.00 in0.0 mm
04:00 AM 24.2°F-4.3°C 15.8°F-9.0°C 70% 1.0 mph NW1.6 kmh NW 11.0 mph17.7 kmh 30.01 in1016.3 mb 0.00 in0.0 mm 0.00 in0.0 mm 0.00 in0.0 mm
04:05 AM 24.2°F-4.3°C 15.8°F-9.0°C 70% 3.0 mph NW4.8 kmh NW 10.0 mph16.1 kmh 30.01 in1016.3 mb 0.00 in0.0 mm 0.00 in0.0 mm 0.00 in0.0 mm
04:10 AM 24.1°F-4.4°C 15.7°F-9.1°C 70% 3.0 mph NNW4.8 kmh NNW 10.0 mph16.1 kmh 30.02 in1016.6 mb 0.00 in0.0 mm 0.00 in0.0 mm 0.00 in0.0 mm
04:15 AM 24.1°F-4.4°C 15.7°F-9.1°C 70% 3.0 mph NW4.8 kmh NW 7.0 mph11.3 kmh 30.02 in1016.6 mb 0.00 in0.0 mm 0.00 in0.0 mm 0.00 in0.0 mm
04:20 AM 24.0°F-4.4°C 15.6°F-9.1°C 70% 4.0 mph WNW6.4 kmh WNW 7.0 mph11.3 kmh 30.02 in1016.6 mb 0.00 in0.0 mm 0.00 in0.0 mm 0.00 in0.0 mm
04:25 AM 24.0°F-4.4°C 15.6°F-9.1°C 70% 7.0 mph WNW11.3 kmh WNW 9.0 mph14.5 kmh 30.02 in1016.6 mb 0.00 in0.0 mm 0.00 in0.0 mm 0.00 in0.0 mm
04:30 AM 23.9°F-4.5°C 15.5°F-9.2°C 70% 6.0 mph NW9.7 kmh NW 9.0 mph14.5 kmh 30.03 in1016.9 mb 0.00 in0.0 mm 0.00 in0.0 mm 0.00 in0.0 mm
04:35 AM 23.8°F-4.6°C 15.4°F-9.2°C 70% 4.0 mph WNW6.4 kmh WNW 9.0 mph14.5 kmh 30.03 in1016.9 mb 0.00 in0.0 mm 0.00 in0.0 mm 0.00 in0.0 mm
04:40 AM 23.8°F-4.6°C 15.4°F-9.2°C 70% 1.0 mph NW1.6 kmh NW 9.0 mph14.5 kmh 30.03 in1016.9 mb 0.00 in0.0 mm 0.00 in0.0 mm 0.00 in0.0 mm
04:45 AM 23.7°F-4.6°C 14.9°F-9.5°C 69% 3.0 mph WNW4.8 kmh WNW 6.0 mph9.7 kmh 30.03 in1016.9 mb 0.00 in0.0 mm 0.00 in0.0 mm 0.00 in0.0 mm
04:50 AM 23.7°F-4.6°C 14.9°F-9.5°C 69% 4.0 mph WNW6.4 kmh WNW 7.0 mph11.3 kmh 30.03 in1016.9 mb 0.00 in0.0 mm 0.00 in0.0 mm 0.00 in0.0 mm
04:55 AM 23.7°F-4.6°C 14.9°F-9.5°C 69% 4.0 mph NW6.4 kmh NW 7.0 mph11.3 kmh 30.03 in1016.9 mb 0.00 in0.0 mm 0.00 in0.0 mm 0.00 in0.0 mm
05:00 AM 23.7°F-4.6°C 14.9°F-9.5°C 69% 5.0 mph WNW8.0 kmh WNW 7.0 mph11.3 kmh 30.04 in1017.3 mb 0.00 in0.0 mm 0.00 in0.0 mm 0.00 in0.0 mm
05:05 AM 23.7°F-4.6°C 15.3°F-9.3°C 70% 3.0 mph NW4.8 kmh NW 7.0 mph11.3 kmh 30.04 in1017.3 mb 0.00 in0.0 mm 0.00 in0.0 mm 0.00 in0.0 mm
05:10 AM 23.7°F-4.6°C 15.3°F-9.3°C 70% 5.0 mph NW8.0 kmh NW 6.0 mph9.7 kmh 30.04 in1017.3 mb 0.00 in0.0 mm 0.00 in0.0 mm 0.00 in0.0 mm
05:15 AM 23.8°F-4.6°C 15.4°F-9.2°C 70% 5.0 mph WNW8.0 kmh WNW 6.0 mph9.7 kmh 30.04 in1017.3 mb 0.00 in0.0 mm 0.00 in0.0 mm 0.00 in0.0 mm
05:20 AM 23.8°F-4.6°C 15.4°F-9.2°C 70% 3.0 mph N4.8 kmh N 6.0 mph9.7 kmh 30.04 in1017.3 mb 0.00 in0.0 mm 0.00 in0.0 mm 0.00 in0.0 mm
05:25 AM 23.8°F-4.6°C 15.4°F-9.2°C 70% 2.0 mph NNW3.2 kmh NNW 6.0 mph9.7 kmh 30.04 in1017.3 mb 0.00 in0.0 mm 0.00 in0.0 mm 0.00 in0.0 mm
05:30 AM 23.8°F-4.6°C 15.4°F-9.2°C 70% 2.0 mph NNW3.2 kmh NNW 7.0 mph11.3 kmh 30.05 in1017.6 mb 0.00 in0.0 mm 0.00 in0.0 mm 0.00 in0.0 mm
05:35 AM 23.8°F-4.6°C 15.4°F-9.2°C 70% 2.0 mph NW3.2 kmh NW 7.0 mph11.3 kmh 30.05 in1017.6 mb 0.00 in0.0 mm 0.00 in0.0 mm 0.00 in0.0 mm
05:40 AM 23.8°F-4.6°C 15.4°F-9.2°C 70% 5.0 mph WNW8.0 kmh WNW 7.0 mph11.3 kmh 30.05 in1017.6 mb 0.00 in0.0 mm 0.00 in0.0 mm 0.00 in0.0 mm
05:45 AM 23.8°F-4.6°C 15.4°F-9.2°C 70% 2.0 mph NNE3.2 kmh NNE 7.0 mph11.3 kmh 30.06 in1017.9 mb 0.00 in0.0 mm 0.00 in0.0 mm 0.00 in0.0 mm
05:50 AM 23.8°F-4.6°C 15.4°F-9.2°C 70% 3.0 mph NNW4.8 kmh NNW 5.0 mph8.0 kmh 30.06 in1017.9 mb 0.00 in0.0 mm 0.00 in0.0 mm 0.00 in0.0 mm
05:55 AM 23.8°F-4.6°C 15.4°F-9.2°C 70% 3.0 mph NNW4.8 kmh NNW 5.0 mph8.0 kmh 30.06 in1017.9 mb 0.00 in0.0 mm 0.00 in0.0 mm 0.00 in0.0 mm
06:00 AM 23.8°F-4.6°C 15.4°F-9.2°C 70% 2.0 mph NW3.2 kmh NW 4.0 mph6.4 kmh 30.06 in1017.9 mb 0.00 in0.0 mm 0.00 in0.0 mm 0.00 in0.0 mm
06:05 AM 23.8°F-4.6°C 15.7°F-9.1°C 71% 1.0 mph N1.6 kmh N 5.0 mph8.0 kmh 30.06 in1017.9 mb 0.00 in0.0 mm 0.00 in0.0 mm 0.00 in0.0 mm
06:10 AM 23.8°F-4.6°C 15.7°F-9.1°C 71% 2.0 mph NNW3.2 kmh NNW 5.0 mph8.0 kmh 30.07 in1018.3 mb 0.00 in0.0 mm 0.00 in0.0 mm 0.00 in0.0 mm
06:15 AM 23.8°F-4.6°C 15.7°F-9.1°C 71% Calm Calm 5.0 mph8.0 kmh 30.07 in1018.3 mb 0.00 in0.0 mm 0.00 in0.0 mm 0.00 in0.0 mm
06:20 AM 23.8°F-4.6°C 16.0°F-8.9°C 72% 5.0 mph N8.0 kmh N 5.0 mph8.0 kmh 30.07 in1018.3 mb 0.00 in0.0 mm 0.00 in0.0 mm 0.00 in0.0 mm
06:25 AM 23.8°F-4.6°C 16.0°F-8.9°C 72% 1.0 mph NNE1.6 kmh NNE 6.0 mph9.7 kmh 30.07 in1018.3 mb 0.00 in0.0 mm 0.00 in0.0 mm 0.00 in0.0 mm
06:30 AM 23.8°F-4.6°C 16.0°F-8.9°C 72% 2.0 mph WNW3.2 kmh WNW 7.0 mph11.3 kmh 30.07 in1018.3 mb 0.00 in0.0 mm 0.00 in0.0 mm 0.00 in0.0 mm
06:35 AM 23.8°F-4.6°C 16.0°F-8.9°C 72% 3.0 mph NW4.8 kmh NW 7.0 mph11.3 kmh 30.07 in1018.3 mb 0.00 in0.0 mm 0.00 in0.0 mm 0.00 in0.0 mm
06:40 AM 23.8°F-4.6°C 16.0°F-8.9°C 72% 1.0 mph NNW1.6 kmh NNW 7.0 mph11.3 kmh 30.07 in1018.3 mb 0.00 in0.0 mm 0.00 in0.0 mm 0.00 in0.0 mm
06:45 AM 23.8°F-4.6°C 16.0°F-8.9°C 72% 1.0 mph NNW1.6 kmh NNW 7.0 mph11.3 kmh 30.07 in1018.3 mb 0.00 in0.0 mm 0.00 in0.0 mm 0.00 in0.0 mm
06:50 AM 23.8°F-4.6°C 16.0°F-8.9°C 72% 2.0 mph NW3.2 kmh NW 5.0 mph8.0 kmh 30.07 in1018.3 mb 0.00 in0.0 mm 0.00 in0.0 mm 0.00 in0.0 mm
06:55 AM 23.9°F-4.5°C 16.1°F-8.8°C 72% 2.0 mph NW3.2 kmh NW 5.0 mph8.0 kmh 30.07 in1018.3 mb 0.00 in0.0 mm 0.00 in0.0 mm 0.00 in0.0 mm
07:00 AM 23.9°F-4.5°C 16.1°F-8.8°C 72% 3.0 mph NW4.8 kmh NW 4.0 mph6.4 kmh 30.07 in1018.3 mb 0.00 in0.0 mm 0.00 in0.0 mm 0.00 in0.0 mm
07:05 AM 24.0°F-4.4°C 16.6°F-8.6°C 73% 2.0 mph WNW3.2 kmh WNW 4.0 mph6.4 kmh 30.07 in1018.3 mb 0.00 in0.0 mm 0.00 in0.0 mm 0.00 in0.0 mm
07:10 AM 24.1°F-4.4°C 16.7°F-8.5°C 73% Calm Calm 4.0 mph6.4 kmh 30.07 in1018.3 mb 0.00 in0.0 mm 0.00 in0.0 mm 0.00 in0.0 mm
07:15 AM 24.1°F-4.4°C 16.7°F-8.5°C 73% Calm Calm 5.0 mph8.0 kmh 30.07 in1018.3 mb 0.00 in0.0 mm 0.00 in0.0 mm 0.00 in0.0 mm
07:20 AM 24.1°F-4.4°C 16.7°F-8.5°C 73% 2.0 mph N3.2 kmh N 5.0 mph8.0 kmh 30.07 in1018.3 mb 0.00 in0.0 mm 0.00 in0.0 mm 0.00 in0.0 mm
07:25 AM 24.2°F-4.3°C 17.1°F-8.3°C 74% Calm Calm 5.0 mph8.0 kmh 30.08 in1018.6 mb 0.00 in0.0 mm 0.00 in0.0 mm 0.00 in0.0 mm
07:30 AM 24.2°F-4.3°C 17.1°F-8.3°C 74% 1.0 mph 1.6 kmh 1.0 mph1.6 kmh 30.08 in1018.6 mb 0.00 in0.0 mm 0.00 in0.0 mm 0.00 in0.0 mm
07:35 AM 24.3°F-4.3°C 17.2°F-8.2°C 74% 2.0 mph NNW3.2 kmh NNW 5.0 mph8.0 kmh 30.08 in1018.6 mb 0.00 in0.0 mm 0.00 in0.0 mm 0.00 in0.0 mm
07:40 AM 24.3°F-4.3°C 17.2°F-8.2°C 74% 2.0 mph NNW3.2 kmh NNW 5.0 mph8.0 kmh 30.08 in1018.6 mb 0.00 in0.0 mm 0.00 in0.0 mm 0.00 in0.0 mm
07:45 AM 24.3°F-4.3°C 17.2°F-8.2°C 74% 3.0 mph N4.8 kmh N 5.0 mph8.0 kmh 30.08 in1018.6 mb 0.00 in0.0 mm 0.00 in0.0 mm 0.00 in0.0 mm
07:50 AM 24.4°F-4.2°C 17.3°F-8.2°C 74% 1.0 mph NNE1.6 kmh NNE 5.0 mph8.0 kmh 30.08 in1018.6 mb 0.00 in0.0 mm 0.00 in0.0 mm 0.00 in0.0 mm
07:55 AM 24.4°F-4.2°C 17.3°F-8.2°C 74% 1.0 mph NNE1.6 kmh NNE 5.0 mph8.0 kmh 30.09 in1019.0 mb 0.00 in0.0 mm 0.00 in0.0 mm 0.00 in0.0 mm
08:00 AM 24.4°F-4.2°C 17.3°F-8.2°C 74% 1.0 mph N1.6 kmh N 5.0 mph8.0 kmh 30.09 in1019.0 mb 0.00 in0.0 mm 0.00 in0.0 mm 0.00 in0.0 mm
08:05 AM 24.4°F-4.2°C 17.6°F-8.0°C 75% 1.0 mph N1.6 kmh N 5.0 mph8.0 kmh 30.09 in1019.0 mb 0.00 in0.0 mm 0.00 in0.0 mm 0.00 in0.0 mm
08:10 AM 24.5°F-4.2°C 17.7°F-7.9°C 75% Calm Calm 4.0 mph6.4 kmh 30.09 in1019.0 mb 0.00 in0.0 mm 0.00 in0.0 mm 0.00 in0.0 mm
08:15 AM 24.5°F-4.2°C 17.7°F-7.9°C 75% 1.0 mph N1.6 kmh N 4.0 mph6.4 kmh 30.09 in1019.0 mb 0.00 in0.0 mm 0.00 in0.0 mm 0.00 in0.0 mm
08:20 AM 24.5°F-4.2°C 17.7°F-7.9°C 75% 2.0 mph N3.2 kmh N 8.0 mph12.9 kmh 30.09 in1019.0 mb 0.00 in0.0 mm 0.00 in0.0 mm 0.00 in0.0 mm
08:25 AM 24.5°F-4.2°C 17.7°F-7.9°C 75% 7.0 mph 11.3 kmh 8.0 mph12.9 kmh 30.10 in1019.3 mb 0.00 in0.0 mm 0.00 in0.0 mm 0.00 in0.0 mm
08:30 AM 24.6°F-4.1°C 17.8°F-7.9°C 75% 5.0 mph N8.0 kmh N 8.0 mph12.9 kmh 30.09 in1019.0 mb 0.00 in0.0 mm 0.00 in0.0 mm 0.00 in0.0 mm
08:35 AM 24.6°F-4.1°C 17.8°F-7.9°C 75% 2.0 mph N3.2 kmh N 8.0 mph12.9 kmh 30.10 in1019.3 mb 0.00 in0.0 mm 0.00 in0.0 mm 0.00 in0.0 mm
08:40 AM 24.7°F-4.1°C 18.2°F-7.7°C 76% 1.0 mph NNE1.6 kmh NNE 5.0 mph8.0 kmh 30.10 in1019.3 mb 0.00 in0.0 mm 0.00 in0.0 mm 0.00 in0.0 mm
08:45 AM 24.6°F-4.1°C 17.8°F-7.9°C 75% 1.0 mph N1.6 kmh N 6.0 mph9.7 kmh 30.10 in1019.3 mb 0.00 in0.0 mm 0.00 in0.0 mm 0.00 in0.0 mm
08:50 AM 24.6°F-4.1°C 18.1°F-7.7°C 76% 4.0 mph NE6.4 kmh NE 6.0 mph9.7 kmh 30.10 in1019.3 mb 0.00 in0.0 mm 0.00 in0.0 mm 0.00 in0.0 mm
08:55 AM 24.7°F-4.1°C 18.2°F-7.7°C 76% 1.0 mph NNE1.6 kmh NNE 6.0 mph9.7 kmh 30.10 in1019.3 mb 0.00 in0.0 mm 0.00 in0.0 mm 0.00 in0.0 mm
09:00 AM 24.7°F-4.1°C 18.2°F-7.7°C 76% 4.0 mph NNE6.4 kmh NNE 6.0 mph9.7 kmh 30.11 in1019.6 mb 0.00 in0.0 mm 0.00 in0.0 mm 0.00 in0.0 mm
09:05 AM 24.7°F-4.1°C 18.5°F-7.5°C 77% 3.0 mph NE4.8 kmh NE 4.0 mph6.4 kmh 30.11 in1019.6 mb 0.00 in0.0 mm 0.00 in0.0 mm 0.00 in0.0 mm
09:10 AM 24.7°F-4.1°C 18.5°F-7.5°C 77% 5.0 mph N8.0 kmh N 5.0 mph8.0 kmh 30.11 in1019.6 mb 0.00 in0.0 mm 0.00 in0.0 mm 0.00 in0.0 mm
09:15 AM 24.7°F-4.1°C 18.5°F-7.5°C 77% 3.0 mph NNE4.8 kmh NNE 6.0 mph9.7 kmh 30.11 in1019.6 mb 0.00 in0.0 mm 0.00 in0.0 mm 0.00 in0.0 mm
09:20 AM 24.7°F-4.1°C 18.5°F-7.5°C 77% 3.0 mph 4.8 kmh 6.0 mph9.7 kmh 30.11 in1019.6 mb 0.00 in0.0 mm 0.00 in0.0 mm 0.00 in0.0 mm
09:25 AM 24.7°F-4.1°C 18.5°F-7.5°C 77% 5.0 mph NNE8.0 kmh NNE 6.0 mph9.7 kmh 30.11 in1019.6 mb 0.00 in0.0 mm 0.00 in0.0 mm 0.00 in0.0 mm
09:30 AM 24.7°F-4.1°C 18.5°F-7.5°C 77% Calm Calm 6.0 mph9.7 kmh 30.11 in1019.6 mb 0.00 in0.0 mm 0.00 in0.0 mm 0.00 in0.0 mm
09:35 AM 24.8°F-4.0°C 18.6°F-7.4°C 77% 3.0 mph N4.8 kmh N 5.0 mph8.0 kmh 30.11 in1019.6 mb 0.00 in0.0 mm 0.00 in0.0 mm 0.00 in0.0 mm
09:40 AM 24.9°F-3.9°C 18.7°F-7.4°C 77% 1.0 mph N1.6 kmh N 5.0 mph8.0 kmh 30.11 in1019.6 mb 0.00 in0.0 mm 0.00 in0.0 mm 0.00 in0.0 mm
09:45 AM 24.9°F-3.9°C 18.7°F-7.4°C 77% Calm Calm 5.0 mph8.0 kmh 30.11 in1019.6 mb 0.00 in0.0 mm 0.00 in0.0 mm 0.00 in0.0 mm
09:50 AM 25.0°F-3.9°C 18.8°F-7.3°C 77% 1.0 mph NNE1.6 kmh NNE 5.0 mph8.0 kmh 30.11 in1019.6 mb 0.00 in0.0 mm 0.00 in0.0 mm 0.00 in0.0 mm
09:55 AM 25.0°F-3.9°C 18.5°F-7.5°C 76% 3.0 mph NNE4.8 kmh NNE 7.0 mph11.3 kmh 30.11 in1019.6 mb 0.00 in0.0 mm 0.00 in0.0 mm 0.00 in0.0 mm
10:00 AM 25.1°F-3.8°C 18.6°F-7.4°C 76% 5.0 mph NNE8.0 kmh NNE 7.0 mph11.3 kmh 30.11 in1019.6 mb 0.00 in0.0 mm 0.00 in0.0 mm 0.00 in0.0 mm
10:05 AM 25.1°F-3.8°C 18.3°F-7.6°C 75% 4.0 mph NE6.4 kmh NE 7.0 mph11.3 kmh 30.12 in1020.0 mb 0.00 in0.0 mm 0.00 in0.0 mm 0.00 in0.0 mm
10:10 AM 25.2°F-3.8°C 18.4°F-7.6°C 75% 3.0 mph NE4.8 kmh NE 7.0 mph11.3 kmh 30.11 in1019.6 mb 0.00 in0.0 mm 0.00 in0.0 mm 0.00 in0.0 mm
10:15 AM 25.2°F-3.8°C 18.0°F-7.8°C 74% 3.0 mph ENE4.8 kmh ENE 7.0 mph11.3 kmh 30.11 in1019.6 mb 0.00 in0.0 mm 0.00 in0.0 mm 0.00 in0.0 mm
10:20 AM 25.3°F-3.7°C 18.1°F-7.7°C 74% 1.0 mph N1.6 kmh N 7.0 mph11.3 kmh 30.12 in1020.0 mb 0.00 in0.0 mm 0.00 in0.0 mm 0.00 in0.0 mm
10:25 AM 25.4°F-3.7°C 18.2°F-7.7°C 74% 4.0 mph N6.4 kmh N 6.0 mph9.7 kmh 30.12 in1020.0 mb 0.00 in0.0 mm 0.00 in0.0 mm 0.00 in0.0 mm
10:30 AM 25.5°F-3.6°C 18.0°F-7.8°C 73% 2.0 mph NE3.2 kmh NE 6.0 mph9.7 kmh 30.12 in1020.0 mb 0.00 in0.0 mm 0.00 in0.0 mm 0.00 in0.0 mm
10:35 AM 25.5°F-3.6°C 18.0°F-7.8°C 73% 3.0 mph NE4.8 kmh NE 8.0 mph12.9 kmh 30.12 in1020.0 mb 0.00 in0.0 mm 0.00 in0.0 mm 0.00 in0.0 mm
10:40 AM 25.5°F-3.6°C 18.0°F-7.8°C 73% 3.0 mph N4.8 kmh N 8.0 mph12.9 kmh 30.12 in1020.0 mb 0.00 in0.0 mm 0.00 in0.0 mm 0.00 in0.0 mm
10:45 AM 25.6°F-3.6°C 18.1°F-7.7°C 73% 4.0 mph N6.4 kmh N 8.0 mph12.9 kmh 30.12 in1020.0 mb 0.00 in0.0 mm 0.00 in0.0 mm 0.00 in0.0 mm
10:50 AM 25.6°F-3.6°C 18.1°F-7.7°C 73% 1.0 mph N1.6 kmh N 8.0 mph12.9 kmh 30.12 in1020.0 mb 0.00 in0.0 mm 0.00 in0.0 mm 0.00 in0.0 mm
10:55 AM 25.6°F-3.6°C 18.1°F-7.7°C 73% 5.0 mph NNE8.0 kmh NNE 8.0 mph12.9 kmh 30.12 in1020.0 mb 0.00 in0.0 mm 0.00 in0.0 mm 0.00 in0.0 mm
11:00 AM 25.6°F-3.6°C 18.1°F-7.7°C 73% 2.0 mph NE3.2 kmh NE 8.0 mph12.9 kmh 30.11 in1019.6 mb 0.00 in0.0 mm 0.00 in0.0 mm 0.00 in0.0 mm
11:05 AM 25.6°F-3.6°C 18.1°F-7.7°C 73% 6.0 mph NNE9.7 kmh NNE 9.0 mph14.5 kmh 30.11 in1019.6 mb 0.00 in0.0 mm 0.00 in0.0 mm 0.00 in0.0 mm
11:10 AM 25.5°F-3.6°C 17.7°F-7.9°C 72% 2.0 mph ENE3.2 kmh ENE 9.0 mph14.5 kmh 30.11 in1019.6 mb 0.00 in0.0 mm 0.00 in0.0 mm 0.00 in0.0 mm
11:15 AM 25.6°F-3.6°C 18.1°F-7.7°C 73% 4.0 mph NE6.4 kmh NE 9.0 mph14.5 kmh 30.11 in1019.6 mb 0.00 in0.0 mm 0.00 in0.0 mm 0.00 in0.0 mm
11:20 AM 25.7°F-3.5°C 18.2°F-7.7°C 73% 4.0 mph NE6.4 kmh NE 9.0 mph14.5 kmh 30.12 in1020.0 mb 0.00 in0.0 mm 0.00 in0.0 mm 0.00 in0.0 mm
11:25 AM 25.7°F-3.5°C 18.2°F-7.7°C 73% 1.0 mph NNE1.6 kmh NNE 8.0 mph12.9 kmh 30.12 in1020.0 mb 0.00 in0.0 mm 0.00 in0.0 mm 0.00 in0.0 mm
11:30 AM 25.8°F-3.4°C 18.3°F-7.6°C 73% 2.0 mph NE3.2 kmh NE 8.0 mph12.9 kmh 30.12 in1020.0 mb 0.00 in0.0 mm 0.00 in0.0 mm 0.00 in0.0 mm
11:35 AM 25.8°F-3.4°C 18.0°F-7.8°C 72% 3.0 mph N4.8 kmh N 5.0 mph8.0 kmh 30.12 in1020.0 mb 0.00 in0.0 mm 0.00 in0.0 mm 0.00 in0.0 mm
11:40 AM 25.9°F-3.4°C 18.1°F-7.7°C 72% 3.0 mph N4.8 kmh N 6.0 mph9.7 kmh 30.13 in1020.3 mb 0.00 in0.0 mm 0.00 in0.0 mm 0.00 in0.0 mm
11:45 AM 25.9°F-3.4°C 18.1°F-7.7°C 72% 6.0 mph N9.7 kmh N 8.0 mph12.9 kmh 30.13 in1020.3 mb 0.00 in0.0 mm 0.00 in0.0 mm 0.00 in0.0 mm
11:50 AM 25.8°F-3.4°C 17.6°F-8.0°C 71% 2.0 mph NE3.2 kmh NE 8.0 mph12.9 kmh 30.12 in1020.0 mb 0.00 in0.0 mm 0.00 in0.0 mm 0.00 in0.0 mm
11:55 AM 25.9°F-3.4°C 18.1°F-7.7°C 72% Calm Calm 8.0 mph12.9 kmh 30.12 in1020.0 mb 0.00 in0.0 mm 0.00 in0.0 mm 0.00 in0.0 mm
12:00 PM 25.9°F-3.4°C 17.7°F-7.9°C 71% 2.0 mph N3.2 kmh N 10.0 mph16.1 kmh 30.12 in1020.0 mb 0.00 in0.0 mm 0.00 in0.0 mm 0.00 in0.0 mm
12:05 PM 25.9°F-3.4°C 17.7°F-7.9°C 71% 5.0 mph N8.0 kmh N 10.0 mph16.1 kmh 30.12 in1020.0 mb 0.00 in0.0 mm 0.00 in0.0 mm 0.00 in0.0 mm
12:10 PM 25.9°F-3.4°C 17.7°F-7.9°C 71% 3.0 mph N4.8 kmh N 10.0 mph16.1 kmh 30.12 in1020.0 mb 0.00 in0.0 mm 0.00 in0.0 mm 0.00 in0.0 mm
12:15 PM 25.8°F-3.4°C 17.6°F-8.0°C 71% 3.0 mph N4.8 kmh N 10.0 mph16.1 kmh 30.12 in1020.0 mb 0.00 in0.0 mm 0.00 in0.0 mm 0.00 in0.0 mm
12:20 PM 25.8°F-3.4°C 17.6°F-8.0°C 71% 4.0 mph N6.4 kmh N 9.0 mph14.5 kmh 30.11 in1019.6 mb 0.00 in0.0 mm 0.00 in0.0 mm 0.00 in0.0 mm
12:25 PM 25.8°F-3.4°C 17.6°F-8.0°C 71% 3.0 mph NW4.8 kmh NW 9.0 mph14.5 kmh 30.11 in1019.6 mb 0.00 in0.0 mm 0.00 in0.0 mm 0.00 in0.0 mm
12:30 PM 25.8°F-3.4°C 17.6°F-8.0°C 71% 2.0 mph N3.2 kmh N 5.0 mph8.0 kmh 30.11 in1019.6 mb 0.00 in0.0 mm 0.00 in0.0 mm 0.00 in0.0 mm
12:35 PM 25.9°F-3.4°C 17.7°F-7.9°C 71% 4.0 mph 6.4 kmh 6.0 mph9.7 kmh 30.11 in1019.6 mb 0.00 in0.0 mm 0.00 in0.0 mm 0.00 in0.0 mm
12:40 PM 26.0°F-3.3°C 18.2°F-7.7°C 72% 3.0 mph NNE4.8 kmh NNE 6.0 mph9.7 kmh 30.10 in1019.3 mb 0.00 in0.0 mm 0.00 in0.0 mm 0.00 in0.0 mm
12:45 PM 26.0°F-3.3°C 18.2°F-7.7°C 72% 1.0 mph NNE1.6 kmh NNE 6.0 mph9.7 kmh 30.10 in1019.3 mb 0.00 in0.0 mm 0.00 in0.0 mm 0.00 in0.0 mm
12:50 PM 26.1°F-3.3°C 18.3°F-7.6°C 72% 2.0 mph NE3.2 kmh NE 6.0 mph9.7 kmh 30.10 in1019.3 mb 0.00 in0.0 mm 0.00 in0.0 mm 0.00 in0.0 mm
12:55 PM 26.2°F-3.2°C 18.3°F-7.6°C 72% 3.0 mph NNE4.8 kmh NNE 6.0 mph9.7 kmh 30.10 in1019.3 mb 0.00 in0.0 mm 0.00 in0.0 mm 0.00 in0.0 mm
01:00 PM 26.2°F-3.2°C 18.3°F-7.6°C 72% 2.0 mph NE3.2 kmh NE 3.0 mph4.8 kmh 30.10 in1019.3 mb 0.00 in0.0 mm 0.00 in0.0 mm 0.00 in0.0 mm
01:05 PM 26.3°F-3.2°C 18.4°F-7.6°C 72% 4.0 mph NNE6.4 kmh NNE 6.0 mph9.7 kmh 30.10 in1019.3 mb 0.00 in0.0 mm 0.00 in0.0 mm 0.00 in0.0 mm
01:10 PM 26.3°F-3.2°C 18.4°F-7.6°C 72% 1.0 mph NE1.6 kmh NE 6.0 mph9.7 kmh 30.10 in1019.3 mb 0.00 in0.0 mm 0.00 in0.0 mm 0.00 in0.0 mm
01:15 PM 26.4°F-3.1°C 18.5°F-7.5°C 72% 1.0 mph NNE1.6 kmh NNE 6.0 mph9.7 kmh 30.10 in1019.3 mb 0.00 in0.0 mm 0.00 in0.0 mm 0.00 in0.0 mm
01:20 PM 26.4°F-3.1°C 18.5°F-7.5°C 72% 2.0 mph NNE3.2 kmh NNE 6.0 mph9.7 kmh 30.10 in1019.3 mb 0.00 in0.0 mm 0.00 in0.0 mm 0.00 in0.0 mm
01:25 PM 26.4°F-3.1°C 18.5°F-7.5°C 72% 4.0 mph NE6.4 kmh NE 5.0 mph8.0 kmh 30.11 in1019.6 mb 0.00 in0.0 mm 0.00 in0.0 mm 0.00 in0.0 mm
01:30 PM 26.5°F-3.1°C 18.3°F-7.6°C 71% 4.0 mph N6.4 kmh N 5.0 mph8.0 kmh 30.11 in1019.6 mb 0.00 in0.0 mm 0.00 in0.0 mm 0.00 in0.0 mm
01:35 PM 26.6°F-3.0°C 18.4°F-7.6°C 71% 2.0 mph NE3.2 kmh NE 6.0 mph9.7 kmh 30.11 in1019.6 mb 0.00 in0.0 mm 0.00 in0.0 mm 0.00 in0.0 mm
01:40 PM 26.6°F-3.0°C 18.1°F-7.7°C 70% 3.0 mph NE4.8 kmh NE 6.0 mph9.7 kmh 30.11 in1019.6 mb 0.00 in0.0 mm 0.00 in0.0 mm 0.00 in0.0 mm
01:45 PM 26.7°F-2.9°C 18.5°F-7.5°C 71% 3.0 mph N4.8 kmh N 8.0 mph12.9 kmh 30.11 in1019.6 mb 0.00 in0.0 mm 0.00 in0.0 mm 0.00 in0.0 mm
01:50 PM 26.6°F-3.0°C 18.4°F-7.6°C 71% 2.0 mph NNE3.2 kmh NNE 8.0 mph12.9 kmh 30.12 in1020.0 mb 0.00 in0.0 mm 0.00 in0.0 mm 0.00 in0.0 mm
01:55 PM 26.6°F-3.0°C 18.4°F-7.6°C 71% 4.0 mph NNE6.4 kmh NNE 8.0 mph12.9 kmh 30.12 in1020.0 mb 0.00 in0.0 mm 0.00 in0.0 mm 0.00 in0.0 mm
02:00 PM 26.7°F-2.9°C 18.5°F-7.5°C 71% 3.0 mph NNE4.8 kmh NNE 8.0 mph12.9 kmh 30.12 in1020.0 mb 0.00 in0.0 mm 0.00 in0.0 mm 0.00 in0.0 mm
02:05 PM 26.7°F-2.9°C 18.5°F-7.5°C 71% 4.0 mph NE6.4 kmh NE 7.0 mph11.3 kmh 30.12 in1020.0 mb 0.00 in0.0 mm 0.00 in0.0 mm 0.00 in0.0 mm
02:10 PM 26.6°F-3.0°C 18.4°F-7.6°C 71% Calm Calm 7.0 mph11.3 kmh 30.12 in1020.0 mb 0.00 in0.0 mm 0.00 in0.0 mm 0.00 in0.0 mm
02:15 PM 26.7°F-2.9°C 18.5°F-7.5°C 71% 1.0 mph N1.6 kmh N 7.0 mph11.3 kmh 30.12 in1020.0 mb 0.00 in0.0 mm 0.00 in0.0 mm 0.00 in0.0 mm
02:20 PM 26.8°F-2.9°C 18.6°F-7.4°C 71% 1.0 mph NW1.6 kmh NW 7.0 mph11.3 kmh 30.12 in1020.0 mb 0.00 in0.0 mm 0.00 in0.0 mm 0.00 in0.0 mm
02:25 PM 26.8°F-2.9°C 18.6°F-7.4°C 71% 2.0 mph NE3.2 kmh NE 5.0 mph8.0 kmh 30.12 in1020.0 mb 0.00 in0.0 mm 0.00 in0.0 mm 0.00 in0.0 mm
02:30 PM 26.8°F-2.9°C 18.6°F-7.4°C 71% 4.0 mph NNE6.4 kmh NNE 5.0 mph8.0 kmh 30.12 in1020.0 mb 0.00 in0.0 mm 0.00 in0.0 mm 0.00 in0.0 mm
02:35 PM 26.7°F-2.9°C 18.2°F-7.7°C 70% 1.0 mph NNE1.6 kmh NNE 5.0 mph8.0 kmh 30.12 in1020.0 mb 0.00 in0.0 mm 0.00 in0.0 mm 0.00 in0.0 mm
02:40 PM 26.8°F-2.9°C 18.6°F-7.4°C 71% 3.0 mph 4.8 kmh 5.0 mph8.0 kmh 30.12 in1020.0 mb 0.00 in0.0 mm 0.00 in0.0 mm 0.00 in0.0 mm
02:45 PM 26.8°F-2.9°C 18.3°F-7.6°C 70% 1.0 mph NNW1.6 kmh NNW 5.0 mph8.0 kmh 30.12 in1020.0 mb 0.00 in0.0 mm 0.00 in0.0 mm 0.00 in0.0 mm
02:50 PM 26.9°F-2.8°C 18.7°F-7.4°C 71% 3.0 mph NE4.8 kmh NE 5.0 mph8.0 kmh 30.11 in1019.6 mb 0.00 in0.0 mm 0.00 in0.0 mm 0.00 in0.0 mm
02:55 PM 27.0°F-2.8°C 18.8°F-7.3°C 71% 4.0 mph NNE6.4 kmh NNE 5.0 mph8.0 kmh 30.11 in1019.6 mb 0.00 in0.0 mm 0.00 in0.0 mm 0.00 in0.0 mm
03:00 PM 26.8°F-2.9°C 18.3°F-7.6°C 70% Calm Calm 7.0 mph11.3 kmh 30.11 in1019.6 mb 0.00 in0.0 mm 0.00 in0.0 mm 0.00 in0.0 mm
03:05 PM 26.8°F-2.9°C 18.6°F-7.4°C 71% 5.0 mph N8.0 kmh N 7.0 mph11.3 kmh 30.11 in1019.6 mb 0.00 in0.0 mm 0.00 in0.0 mm 0.00 in0.0 mm
03:10 PM 26.8°F-2.9°C 18.3°F-7.6°C 70% 2.0 mph NE3.2 kmh NE 7.0 mph11.3 kmh 30.11 in1019.6 mb 0.00 in0.0 mm 0.00 in0.0 mm 0.00 in0.0 mm
03:15 PM 26.8°F-2.9°C 18.3°F-7.6°C 70% Calm Calm 7.0 mph11.3 kmh 30.11 in1019.6 mb 0.00 in0.0 mm 0.00 in0.0 mm 0.00 in0.0 mm
03:20 PM 26.8°F-2.9°C 18.6°F-7.4°C 71% 2.0 mph NE3.2 kmh NE 7.0 mph11.3 kmh 30.11 in1019.6 mb 0.00 in0.0 mm 0.00 in0.0 mm 0.00 in0.0 mm
03:25 PM 26.8°F-2.9°C 18.6°F-7.4°C 71% 2.0 mph NW3.2 kmh NW 7.0 mph11.3 kmh 30.10 in1019.3 mb 0.00 in0.0 mm 0.00 in0.0 mm 0.00 in0.0 mm
03:30 PM 26.8°F-2.9°C 18.6°F-7.4°C 71% 4.0 mph NE6.4 kmh NE 7.0 mph11.3 kmh 30.11 in1019.6 mb 0.00 in0.0 mm 0.00 in0.0 mm 0.00 in0.0 mm
03:35 PM 26.8°F-2.9°C 18.6°F-7.4°C 71% 3.0 mph NW4.8 kmh NW 7.0 mph11.3 kmh 30.11 in1019.6 mb 0.00 in0.0 mm 0.00 in0.0 mm 0.00 in0.0 mm
03:40 PM 26.8°F-2.9°C 18.6°F-7.4°C 71% 1.0 mph NNW1.6 kmh NNW 7.0 mph11.3 kmh 30.11 in1019.6 mb 0.00 in0.0 mm 0.00 in0.0 mm 0.00 in0.0 mm
03:45 PM 26.9°F-2.8°C 18.7°F-7.4°C 71% 5.0 mph N8.0 kmh N 7.0 mph11.3 kmh 30.11 in1019.6 mb 0.00 in0.0 mm 0.00 in0.0 mm 0.00 in0.0 mm
03:50 PM 26.9°F-2.8°C 18.7°F-7.4°C 71% 1.0 mph NNE1.6 kmh NNE 7.0 mph11.3 kmh 30.11 in1019.6 mb 0.00 in0.0 mm 0.00 in0.0 mm 0.00 in0.0 mm
03:55 PM 27.0°F-2.8°C 18.8°F-7.3°C 71% 3.0 mph N4.8 kmh N 6.0 mph9.7 kmh 30.11 in1019.6 mb 0.00 in0.0 mm 0.00 in0.0 mm 0.00 in0.0 mm
04:00 PM 27.1°F-2.7°C 18.9°F-7.3°C 71% 5.0 mph N8.0 kmh N 7.0 mph11.3 kmh 30.11 in1019.6 mb 0.00 in0.0 mm 0.00 in0.0 mm 0.00 in0.0 mm
04:05 PM 27.1°F-2.7°C 18.9°F-7.3°C 71% 4.0 mph NNE6.4 kmh NNE 7.0 mph11.3 kmh 30.11 in1019.6 mb 0.00 in0.0 mm 0.00 in0.0 mm 0.00 in0.0 mm
04:10 PM 27.1°F-2.7°C 18.9°F-7.3°C 71% 4.0 mph NE6.4 kmh NE 9.0 mph14.5 kmh 30.10 in1019.3 mb 0.00 in0.0 mm 0.00 in0.0 mm 0.00 in0.0 mm
04:15 PM 27.2°F-2.7°C 19.0°F-7.2°C 71% 4.0 mph NE6.4 kmh NE 9.0 mph14.5 kmh 30.10 in1019.3 mb 0.00 in0.0 mm 0.00 in0.0 mm 0.00 in0.0 mm
04:20 PM 27.2°F-2.7°C 18.6°F-7.4°C 70% 2.0 mph N3.2 kmh N 9.0 mph14.5 kmh 30.10 in1019.3 mb 0.00 in0.0 mm 0.00 in0.0 mm 0.00 in0.0 mm
04:25 PM 27.2°F-2.7°C 18.6°F-7.4°C 70% 3.0 mph NNE4.8 kmh NNE 9.0 mph14.5 kmh 30.10 in1019.3 mb 0.00 in0.0 mm 0.00 in0.0 mm 0.00 in0.0 mm
04:30 PM 27.1°F-2.7°C 18.5°F-7.5°C 70% 5.0 mph N8.0 kmh N 7.0 mph11.3 kmh 30.10 in1019.3 mb 0.00 in0.0 mm 0.00 in0.0 mm 0.00 in0.0 mm
04:35 PM 27.0°F-2.8°C 18.1°F-7.7°C 69% 2.0 mph NE3.2 kmh NE 7.0 mph11.3 kmh 30.11 in1019.6 mb 0.00 in0.0 mm 0.00 in0.0 mm 0.00 in0.0 mm
04:40 PM 27.0°F-2.8°C 18.1°F-7.7°C 69% 4.0 mph ENE6.4 kmh ENE 7.0 mph11.3 kmh 30.10 in1019.3 mb 0.00 in0.0 mm 0.00 in0.0 mm 0.00 in0.0 mm
04:45 PM 26.9°F-2.8°C 18.0°F-7.8°C 69% 2.0 mph NNE3.2 kmh NNE 7.0 mph11.3 kmh 30.10 in1019.3 mb 0.00 in0.0 mm 0.00 in0.0 mm 0.00 in0.0 mm
04:50 PM 26.8°F-2.9°C 17.9°F-7.8°C 69% 4.0 mph N6.4 kmh N 5.0 mph8.0 kmh 30.10 in1019.3 mb 0.00 in0.0 mm 0.00 in0.0 mm 0.00 in0.0 mm
04:55 PM 26.8°F-2.9°C 17.9°F-7.8°C 69% 4.0 mph N6.4 kmh N 8.0 mph12.9 kmh 30.11 in1019.6 mb 0.00 in0.0 mm 0.00 in0.0 mm 0.00 in0.0 mm
05:00 PM 26.8°F-2.9°C 17.9°F-7.8°C 69% 2.0 mph N3.2 kmh N 8.0 mph12.9 kmh 30.11 in1019.6 mb 0.00 in0.0 mm 0.00 in0.0 mm 0.00 in0.0 mm
05:05 PM 26.7°F-2.9°C 17.8°F-7.9°C 69% 2.0 mph NE3.2 kmh NE 8.0 mph12.9 kmh 30.11 in1019.6 mb 0.00 in0.0 mm 0.00 in0.0 mm 0.00 in0.0 mm
05:10 PM 26.7°F-2.9°C 17.8°F-7.9°C 69% 4.0 mph NNE6.4 kmh NNE 8.0 mph12.9 kmh 30.11 in1019.6 mb 0.00 in0.0 mm 0.00 in0.0 mm 0.00 in0.0 mm
05:15 PM 26.7°F-2.9°C 17.5°F-8.1°C 68% 3.0 mph NNE4.8 kmh NNE 8.0 mph12.9 kmh 30.11 in1019.6 mb 0.00 in0.0 mm 0.00 in0.0 mm 0.00 in0.0 mm
05:20 PM 26.6°F-3.0°C 17.4°F-8.1°C 68% 7.0 mph ENE11.3 kmh ENE 9.0 mph14.5 kmh 30.11 in1019.6 mb 0.00 in0.0 mm 0.00 in0.0 mm 0.00 in0.0 mm
05:25 PM 26.6°F-3.0°C 17.7°F-7.9°C 69% 4.0 mph NE6.4 kmh NE 10.0 mph16.1 kmh 30.11 in1019.6 mb 0.00 in0.0 mm 0.00 in0.0 mm 0.00 in0.0 mm
05:30 PM 26.6°F-3.0°C 17.7°F-7.9°C 69% 5.0 mph NE8.0 kmh NE 11.0 mph17.7 kmh 30.11 in1019.6 mb 0.00 in0.0 mm 0.00 in0.0 mm 0.00 in0.0 mm
05:35 PM 26.6°F-3.0°C 17.7°F-7.9°C 69% 3.0 mph NE4.8 kmh NE 11.0 mph17.7 kmh 30.11 in1019.6 mb 0.00 in0.0 mm 0.00 in0.0 mm 0.00 in0.0 mm
05:40 PM 26.5°F-3.1°C 17.6°F-8.0°C 69% 2.0 mph NNE3.2 kmh NNE 11.0 mph17.7 kmh 30.11 in1019.6 mb 0.00 in0.0 mm 0.00 in0.0 mm 0.00 in0.0 mm
05:45 PM 26.5°F-3.1°C 17.6°F-8.0°C 69% 3.0 mph NE4.8 kmh NE 11.0 mph17.7 kmh 30.11 in1019.6 mb 0.00 in0.0 mm 0.00 in0.0 mm 0.00 in0.0 mm
05:50 PM 26.5°F-3.1°C 17.6°F-8.0°C 69% 4.0 mph NE6.4 kmh NE 12.0 mph19.3 kmh 30.11 in1019.6 mb 0.00 in0.0 mm 0.00 in0.0 mm 0.00 in0.0 mm
05:55 PM 26.4°F-3.1°C 17.2°F-8.2°C 68% 5.0 mph ENE8.0 kmh ENE 12.0 mph19.3 kmh 30.11 in1019.6 mb 0.00 in0.0 mm 0.00 in0.0 mm 0.00 in0.0 mm
06:00 PM 26.4°F-3.1°C 17.5°F-8.1°C 69% 7.0 mph ENE11.3 kmh ENE 12.0 mph19.3 kmh 30.11 in1019.6 mb 0.00 in0.0 mm 0.00 in0.0 mm 0.00 in0.0 mm
06:05 PM 26.4°F-3.1°C 17.5°F-8.1°C 69% 9.0 mph NE14.5 kmh NE 12.0 mph19.3 kmh 30.11 in1019.6 mb 0.00 in0.0 mm 0.00 in0.0 mm 0.00 in0.0 mm
06:10 PM 26.4°F-3.1°C 17.5°F-8.1°C 69% 5.0 mph NE8.0 kmh NE 12.0 mph19.3 kmh 30.11 in1019.6 mb 0.00 in0.0 mm 0.00 in0.0 mm 0.00 in0.0 mm
06:15 PM 26.3°F-3.2°C 17.4°F-8.1°C 69% 5.0 mph NE8.0 kmh NE 12.0 mph19.3 kmh 30.11 in1019.6 mb 0.00 in0.0 mm 0.00 in0.0 mm 0.00 in0.0 mm
06:20 PM 26.3°F-3.2°C 17.8°F-7.9°C 70% 3.0 mph ENE4.8 kmh ENE 8.0 mph12.9 kmh 30.11 in1019.6 mb 0.00 in0.0 mm 0.00 in0.0 mm 0.00 in0.0 mm
06:25 PM 26.3°F-3.2°C 17.8°F-7.9°C 70% 5.0 mph NE8.0 kmh NE 8.0 mph12.9 kmh 30.11 in1019.6 mb 0.00 in0.0 mm 0.00 in0.0 mm 0.00 in0.0 mm
06:30 PM 26.2°F-3.2°C 17.7°F-7.9°C 70% 4.0 mph NE6.4 kmh NE 9.0 mph14.5 kmh 30.12 in1020.0 mb 0.00 in0.0 mm 0.00 in0.0 mm 0.00 in0.0 mm
06:35 PM 26.2°F-3.2°C 17.7°F-7.9°C 70% 9.0 mph E14.5 kmh E 11.0 mph17.7 kmh 30.12 in1020.0 mb 0.00 in0.0 mm 0.00 in0.0 mm 0.00 in0.0 mm
06:40 PM 26.1°F-3.3°C 17.6°F-8.0°C 70% 2.0 mph ENE3.2 kmh ENE 11.0 mph17.7 kmh 30.12 in1020.0 mb 0.00 in0.0 mm 0.00 in0.0 mm 0.00 in0.0 mm
06:45 PM 26.1°F-3.3°C 17.6°F-8.0°C 70% 1.0 mph NE1.6 kmh NE 11.0 mph17.7 kmh 30.13 in1020.3 mb 0.00 in0.0 mm 0.00 in0.0 mm 0.00 in0.0 mm
06:50 PM 26.1°F-3.3°C 17.6°F-8.0°C 70% 3.0 mph NE4.8 kmh NE 11.0 mph17.7 kmh 30.12 in1020.0 mb 0.00 in0.0 mm 0.00 in0.0 mm 0.00 in0.0 mm
06:55 PM 26.1°F-3.3°C 17.6°F-8.0°C 70% 4.0 mph NE6.4 kmh NE 8.0 mph12.9 kmh 30.12 in1020.0 mb 0.00 in0.0 mm 0.00 in0.0 mm 0.00 in0.0 mm
07:00 PM 26.1°F-3.3°C 17.9°F-7.8°C 71% 3.0 mph NE4.8 kmh NE 8.0 mph12.9 kmh 30.12 in1020.0 mb 0.00 in0.0 mm 0.00 in0.0 mm 0.00 in0.0 mm
07:05 PM 26.2°F-3.2°C 18.0°F-7.8°C 71% 5.0 mph NE8.0 kmh NE 8.0 mph12.9 kmh 30.12 in1020.0 mb 0.00 in0.0 mm 0.00 in0.0 mm 0.00 in0.0 mm
07:10 PM 26.2°F-3.2°C 18.0°F-7.8°C 71% 4.0 mph ENE6.4 kmh ENE 9.0 mph14.5 kmh 30.13 in1020.3 mb 0.00 in0.0 mm 0.00 in0.0 mm 0.00 in0.0 mm
07:15 PM 26.1°F-3.3°C 17.9°F-7.8°C 71% 3.0 mph NE4.8 kmh NE 9.0 mph14.5 kmh 30.13 in1020.3 mb 0.00 in0.0 mm 0.00 in0.0 mm 0.00 in0.0 mm
07:20 PM 26.1°F-3.3°C 17.9°F-7.8°C 71% 5.0 mph NE8.0 kmh NE 9.0 mph14.5 kmh 30.13 in1020.3 mb 0.00 in0.0 mm 0.00 in0.0 mm 0.00 in0.0 mm
07:25 PM 26.1°F-3.3°C 17.9°F-7.8°C 71% 3.0 mph ENE4.8 kmh ENE 9.0 mph14.5 kmh 30.13 in1020.3 mb 0.00 in0.0 mm 0.00 in0.0 mm 0.00 in0.0 mm
07:30 PM 26.2°F-3.2°C 18.0°F-7.8°C 71% 2.0 mph NE3.2 kmh NE 7.0 mph11.3 kmh 30.13 in1020.3 mb 0.00 in0.0 mm 0.00 in0.0 mm 0.00 in0.0 mm
07:35 PM 26.2°F-3.2°C 18.0°F-7.8°C 71% Calm Calm 7.0 mph11.3 kmh 30.13 in1020.3 mb 0.00 in0.0 mm 0.00 in0.0 mm 0.00 in0.0 mm
07:40 PM 26.2°F-3.2°C 18.0°F-7.8°C 71% 6.0 mph NE9.7 kmh NE 10.0 mph16.1 kmh 30.13 in1020.3 mb 0.00 in0.0 mm 0.00 in0.0 mm 0.00 in0.0 mm
07:45 PM 26.2°F-3.2°C 18.0°F-7.8°C 71% 4.0 mph ENE6.4 kmh ENE 10.0 mph16.1 kmh 30.13 in1020.3 mb 0.00 in0.0 mm 0.00 in0.0 mm 0.00 in0.0 mm
07:50 PM 26.3°F-3.2°C 18.1°F-7.7°C 71% 4.0 mph NE6.4 kmh NE 10.0 mph16.1 kmh 30.13 in1020.3 mb 0.00 in0.0 mm 0.00 in0.0 mm 0.00 in0.0 mm
07:55 PM 26.3°F-3.2°C 18.4°F-7.6°C 72% 6.0 mph NE9.7 kmh NE 10.0 mph16.1 kmh 30.13 in1020.3 mb 0.00 in0.0 mm 0.00 in0.0 mm 0.00 in0.0 mm
08:00 PM 26.3°F-3.2°C 18.1°F-7.7°C 71% 3.0 mph NE4.8 kmh NE 9.0 mph14.5 kmh 30.13 in1020.3 mb 0.00 in0.0 mm 0.00 in0.0 mm 0.00 in0.0 mm
08:05 PM 26.2°F-3.2°C 18.0°F-7.8°C 71% 5.0 mph NE8.0 kmh NE 9.0 mph14.5 kmh 30.13 in1020.3 mb 0.00 in0.0 mm 0.00 in0.0 mm 0.00 in0.0 mm
08:10 PM 26.2°F-3.2°C 18.0°F-7.8°C 71% 9.0 mph ENE14.5 kmh ENE 9.0 mph14.5 kmh 30.13 in1020.3 mb 0.00 in0.0 mm 0.00 in0.0 mm 0.00 in0.0 mm
08:15 PM 26.2°F-3.2°C 18.0°F-7.8°C 71% 3.0 mph ENE4.8 kmh ENE 9.0 mph14.5 kmh 30.13 in1020.3 mb 0.00 in0.0 mm 0.00 in0.0 mm 0.00 in0.0 mm
08:20 PM 26.2°F-3.2°C 18.0°F-7.8°C 71% 1.0 mph ENE1.6 kmh ENE 9.0 mph14.5 kmh 30.12 in1020.0 mb 0.00 in0.0 mm 0.00 in0.0 mm 0.00 in0.0 mm
08:25 PM 26.1°F-3.3°C 17.9°F-7.8°C 71% 2.0 mph NE3.2 kmh NE 9.0 mph14.5 kmh 30.13 in1020.3 mb 0.00 in0.0 mm 0.00 in0.0 mm 0.00 in0.0 mm
08:30 PM 26.1°F-3.3°C 17.9°F-7.8°C 71% 5.0 mph NE8.0 kmh NE 8.0 mph12.9 kmh 30.12 in1020.0 mb 0.00 in0.0 mm 0.00 in0.0 mm 0.00 in0.0 mm
08:35 PM 26.1°F-3.3°C 17.9°F-7.8°C 71% 6.0 mph NNE9.7 kmh NNE 8.0 mph12.9 kmh 30.12 in1020.0 mb 0.00 in0.0 mm 0.00 in0.0 mm 0.00 in0.0 mm
08:40 PM 26.1°F-3.3°C 17.9°F-7.8°C 71% 3.0 mph E4.8 kmh E 9.0 mph14.5 kmh 30.12 in1020.0 mb 0.00 in0.0 mm 0.00 in0.0 mm 0.00 in0.0 mm
08:45 PM 26.2°F-3.2°C 18.0°F-7.8°C 71% 8.0 mph ENE12.9 kmh ENE 10.0 mph16.1 kmh 30.12 in1020.0 mb 0.00 in0.0 mm 0.00 in0.0 mm 0.00 in0.0 mm
08:50 PM 26.1°F-3.3°C 17.9°F-7.8°C 71% 9.0 mph ENE14.5 kmh ENE 11.0 mph17.7 kmh 30.12 in1020.0 mb 0.00 in0.0 mm 0.00 in0.0 mm 0.00 in0.0 mm
08:55 PM 26.2°F-3.2°C 18.0°F-7.8°C 71% 3.0 mph NNE4.8 kmh NNE 11.0 mph17.7 kmh 30.12 in1020.0 mb 0.00 in0.0 mm 0.00 in0.0 mm 0.00 in0.0 mm
09:00 PM 26.2°F-3.2°C 18.0°F-7.8°C 71% 6.0 mph NNE9.7 kmh NNE 11.0 mph17.7 kmh 30.12 in1020.0 mb 0.00 in0.0 mm 0.00 in0.0 mm 0.00 in0.0 mm
09:05 PM 26.1°F-3.3°C 17.9°F-7.8°C 71% 2.0 mph NNE3.2 kmh NNE 11.0 mph17.7 kmh 30.13 in1020.3 mb 0.00 in0.0 mm 0.00 in0.0 mm 0.00 in0.0 mm
09:10 PM 26.1°F-3.3°C 17.9°F-7.8°C 71% 4.0 mph NE6.4 kmh NE 8.0 mph12.9 kmh 30.13 in1020.3 mb 0.00 in0.0 mm 0.00 in0.0 mm 0.00 in0.0 mm
09:15 PM 26.1°F-3.3°C 17.9°F-7.8°C 71% 3.0 mph ENE4.8 kmh ENE 9.0 mph14.5 kmh 30.13 in1020.3 mb 0.00 in0.0 mm 0.00 in0.0 mm 0.00 in0.0 mm
09:20 PM 26.1°F-3.3°C 17.9°F-7.8°C 71% 3.0 mph ENE4.8 kmh ENE 9.0 mph14.5 kmh 30.13 in1020.3 mb 0.00 in0.0 mm 0.00 in0.0 mm 0.00 in0.0 mm
09:25 PM 26.1°F-3.3°C 17.9°F-7.8°C 71% Calm Calm 9.0 mph14.5 kmh 30.13 in1020.3 mb 0.00 in0.0 mm 0.00 in0.0 mm 0.00 in0.0 mm
09:30 PM 26.2°F-3.2°C 18.0°F-7.8°C 71% 1.0 mph ENE1.6 kmh ENE 9.0 mph14.5 kmh 30.13 in1020.3 mb 0.00 in0.0 mm 0.00 in0.0 mm 0.00 in0.0 mm
09:35 PM 26.2°F-3.2°C 18.0°F-7.8°C 71% Calm Calm 2.0 mph3.2 kmh 30.14 in1020.7 mb 0.00 in0.0 mm 0.00 in0.0 mm 0.00 in0.0 mm
09:40 PM 26.2°F-3.2°C 18.0°F-7.8°C 71% 2.0 mph E3.2 kmh E 2.0 mph3.2 kmh 30.14 in1020.7 mb 0.00 in0.0 mm 0.00 in0.0 mm 0.00 in0.0 mm
09:45 PM 26.2°F-3.2°C 18.0°F-7.8°C 71% 7.0 mph ENE11.3 kmh ENE 9.0 mph14.5 kmh 30.14 in1020.7 mb 0.00 in0.0 mm 0.00 in0.0 mm 0.00 in0.0 mm
09:50 PM 26.2°F-3.2°C 18.0°F-7.8°C 71% 3.0 mph ENE4.8 kmh ENE 9.0 mph14.5 kmh 30.14 in1020.7 mb 0.00 in0.0 mm 0.00 in0.0 mm 0.00 in0.0 mm
09:55 PM 26.3°F-3.2°C 18.1°F-7.7°C 71% 8.0 mph NE12.9 kmh NE 9.0 mph14.5 kmh 30.13 in1020.3 mb 0.00 in0.0 mm 0.00 in0.0 mm 0.00 in0.0 mm
10:00 PM 26.3°F-3.2°C 18.1°F-7.7°C 71% 2.0 mph NNE3.2 kmh NNE 9.0 mph14.5 kmh 30.14 in1020.7 mb 0.00 in0.0 mm 0.00 in0.0 mm 0.00 in0.0 mm
10:05 PM 26.3°F-3.2°C 18.1°F-7.7°C 71% 3.0 mph NE4.8 kmh NE 9.0 mph14.5 kmh 30.14 in1020.7 mb 0.00 in0.0 mm 0.00 in0.0 mm 0.00 in0.0 mm
10:10 PM 26.3°F-3.2°C 18.1°F-7.7°C 71% 5.0 mph NE8.0 kmh NE 9.0 mph14.5 kmh 30.14 in1020.7 mb 0.00 in0.0 mm 0.00 in0.0 mm 0.00 in0.0 mm
10:15 PM 26.2°F-3.2°C 17.7°F-7.9°C 70% 7.0 mph ENE11.3 kmh ENE 9.0 mph14.5 kmh 30.14 in1020.7 mb 0.00 in0.0 mm 0.00 in0.0 mm 0.00 in0.0 mm
10:20 PM 26.2°F-3.2°C 17.7°F-7.9°C 70% 6.0 mph NE9.7 kmh NE 9.0 mph14.5 kmh 30.14 in1020.7 mb 0.00 in0.0 mm 0.00 in0.0 mm 0.00 in0.0 mm
10:25 PM 26.2°F-3.2°C 17.7°F-7.9°C 70% 5.0 mph ENE8.0 kmh ENE 9.0 mph14.5 kmh 30.14 in1020.7 mb 0.00 in0.0 mm 0.00 in0.0 mm 0.00 in0.0 mm
10:30 PM 26.2°F-3.2°C 17.7°F-7.9°C 70% 5.0 mph ENE8.0 kmh ENE 9.0 mph14.5 kmh 30.14 in1020.7 mb 0.00 in0.0 mm 0.00 in0.0 mm 0.00 in0.0 mm
10:35 PM 26.2°F-3.2°C 17.7°F-7.9°C 70% 4.0 mph ENE6.4 kmh ENE 9.0 mph14.5 kmh 30.14 in1020.7 mb 0.00 in0.0 mm 0.00 in0.0 mm 0.00 in0.0 mm
10:40 PM 26.2°F-3.2°C 17.7°F-7.9°C 70% 3.0 mph NE4.8 kmh NE 7.0 mph11.3 kmh 30.14 in1020.7 mb 0.00 in0.0 mm 0.00 in0.0 mm 0.00 in0.0 mm
10:45 PM 26.2°F-3.2°C 17.7°F-7.9°C 70% 5.0 mph ENE8.0 kmh ENE 7.0 mph11.3 kmh 30.14 in1020.7 mb 0.00 in0.0 mm 0.00 in0.0 mm 0.00 in0.0 mm
10:50 PM 26.2°F-3.2°C 18.0°F-7.8°C 71% 2.0 mph ENE3.2 kmh ENE 7.0 mph11.3 kmh 30.14 in1020.7 mb 0.00 in0.0 mm 0.00 in0.0 mm 0.00 in0.0 mm
10:55 PM 26.3°F-3.2°C 18.1°F-7.7°C 71% 3.0 mph ENE4.8 kmh ENE 7.0 mph11.3 kmh 30.14 in1020.7 mb 0.00 in0.0 mm 0.00 in0.0 mm 0.00 in0.0 mm
11:00 PM 26.3°F-3.2°C 18.1°F-7.7°C 71% 3.0 mph NE4.8 kmh NE 7.0 mph11.3 kmh 30.14 in1020.7 mb 0.00 in0.0 mm 0.00 in0.0 mm 0.00 in0.0 mm
11:05 PM 26.3°F-3.2°C 18.1°F-7.7°C 71% 3.0 mph E4.8 kmh E 6.0 mph9.7 kmh 30.14 in1020.7 mb 0.00 in0.0 mm 0.00 in0.0 mm 0.00 in0.0 mm
11:10 PM 26.3°F-3.2°C 18.1°F-7.7°C 71% 1.0 mph E1.6 kmh E 6.0 mph9.7 kmh 30.15 in1021.0 mb 0.00 in0.0 mm 0.00 in0.0 mm 0.00 in0.0 mm
11:15 PM 26.3°F-3.2°C 18.1°F-7.7°C 71% 5.0 mph ENE8.0 kmh ENE 7.0 mph11.3 kmh 30.15 in1021.0 mb 0.00 in0.0 mm 0.00 in0.0 mm 0.00 in0.0 mm
11:20 PM 26.3°F-3.2°C 18.1°F-7.7°C 71% 6.0 mph NE9.7 kmh NE 8.0 mph12.9 kmh 30.15 in1021.0 mb 0.00 in0.0 mm 0.00 in0.0 mm 0.00 in0.0 mm
11:25 PM 26.3°F-3.2°C 18.1°F-7.7°C 71% 4.0 mph NE6.4 kmh NE 8.0 mph12.9 kmh 30.14 in1020.7 mb 0.00 in0.0 mm 0.00 in0.0 mm 0.00 in0.0 mm
11:30 PM 26.2°F-3.2°C 18.0°F-7.8°C 71% 9.0 mph E14.5 kmh E 10.0 mph16.1 kmh 30.14 in1020.7 mb 0.00 in0.0 mm 0.00 in0.0 mm 0.00 in0.0 mm
11:35 PM 26.1°F-3.3°C 17.6°F-8.0°C 70% 4.0 mph ENE6.4 kmh ENE 11.0 mph17.7 kmh 30.14 in1020.7 mb 0.00 in0.0 mm 0.00 in0.0 mm 0.00 in0.0 mm
11:40 PM 26.1°F-3.3°C 17.6°F-8.0°C 70% 3.0 mph E4.8 kmh E 11.0 mph17.7 kmh 30.14 in1020.7 mb 0.00 in0.0 mm 0.00 in0.0 mm 0.00 in0.0 mm
11:45 PM 26.0°F-3.3°C 17.5°F-8.1°C 70% 1.0 mph E1.6 kmh E 11.0 mph17.7 kmh 30.14 in1020.7 mb 0.00 in0.0 mm 0.00 in0.0 mm 0.00 in0.0 mm
11:50 PM 26.0°F-3.3°C 17.5°F-8.1°C 70% 3.0 mph E4.8 kmh E 11.0 mph17.7 kmh 30.14 in1020.7 mb 0.00 in0.0 mm 0.00 in0.0 mm 0.00 in0.0 mm
11:55 PM 26.0°F-3.3°C 17.5°F-8.1°C 70% 2.0 mph E3.2 kmh E 5.0 mph8.0 kmh 30.14 in1020.7 mb 0.00 in0.0 mm 0.00 in0.0 mm 0.00 in0.0 mm